sensor_id;sensor_type;location;lat;lon;timestamp;pressure;altitude;pressure_sealevel;temperature;humidity
38812;BME280;24553;51.640;-0.752;2022-12-18T00:01:35;101498.84;;;-6.78;100.00
38812;BME280;24553;51.640;-0.752;2022-12-18T00:04:07;101491.81;;;-6.74;100.00
38812;BME280;24553;51.640;-0.752;2022-12-18T00:06:34;101488.19;;;-6.69;100.00
38812;BME280;24553;51.640;-0.752;2022-12-18T00:09:01;101493.97;;;-6.62;100.00
38812;BME280;24553;51.640;-0.752;2022-12-18T00:11:28;101498.44;;;-6.67;100.00
38812;BME280;24553;51.640;-0.752;2022-12-18T00:13:56;101491.66;;;-6.70;100.00
38812;BME280;24553;51.640;-0.752;2022-12-18T00:16:23;101488.69;;;-6.83;100.00
38812;BME280;24553;51.640;-0.752;2022-12-18T00:18:50;101489.00;;;-6.92;100.00
38812;BME280;24553;51.640;-0.752;2022-12-18T00:21:16;101484.06;;;-6.98;100.00
38812;BME280;24553;51.640;-0.752;2022-12-18T00:23:43;101493.47;;;-6.97;100.00
38812;BME280;24553;51.640;-0.752;2022-12-18T00:26:29;101478.38;;;-6.83;100.00
38812;BME280;24553;51.640;-0.752;2022-12-18T00:28:58;101483.69;;;-6.87;100.00
38812;BME280;24553;51.640;-0.752;2022-12-18T00:31:25;101487.56;;;-6.99;100.00
38812;BME280;24553;51.640;-0.752;2022-12-18T00:33:50;101485.41;;;-7.11;100.00
38812;BME280;24553;51.640;-0.752;2022-12-18T00:36:18;101485.69;;;-7.20;100.00
38812;BME280;24553;51.640;-0.752;2022-12-18T00:38:45;101488.28;;;-7.20;100.00
38812;BME280;24553;51.640;-0.752;2022-12-18T00:41:12;101484.72;;;-7.16;100.00
38812;BME280;24553;51.640;-0.752;2022-12-18T00:43:38;101489.88;;;-7.16;100.00
38812;BME280;24553;51.640;-0.752;2022-12-18T00:46:04;101480.41;;;-7.16;100.00
38812;BME280;24553;51.640;-0.752;2022-12-18T00:48:30;101463.38;;;-7.20;100.00
38812;BME280;24553;51.640;-0.752;2022-12-18T00:50:55;101462.56;;;-7.22;100.00
38812;BME280;24553;51.640;-0.752;2022-12-18T00:53:20;101460.69;;;-7.17;100.00
38812;BME280;24553;51.640;-0.752;2022-12-18T00:55:46;101468.19;;;-7.11;100.00
38812;BME280;24553;51.640;-0.752;2022-12-18T00:58:13;101469.53;;;-7.00;100.00
38812;BME280;24553;51.640;-0.752;2022-12-18T01:00:38;101468.94;;;-7.07;100.00
38812;BME280;24553;51.640;-0.752;2022-12-18T01:03:05;101473.19;;;-7.06;100.00
38812;BME280;24553;51.640;-0.752;2022-12-18T01:05:30;101470.94;;;-6.92;100.00
38812;BME280;24553;51.640;-0.752;2022-12-18T01:07:56;101469.44;;;-6.74;100.00
38812;BME280;24553;51.640;-0.752;2022-12-18T01:10:22;101462.66;;;-6.76;100.00
38812;BME280;24553;51.640;-0.752;2022-12-18T01:12:47;101454.38;;;-6.85;100.00
38812;BME280;24553;51.640;-0.752;2022-12-18T01:15:14;101456.00;;;-6.82;100.00
38812;BME280;24553;51.640;-0.752;2022-12-18T01:17:40;101454.38;;;-6.85;100.00
38812;BME280;24553;51.640;-0.752;2022-12-18T01:20:05;101448.81;;;-6.74;100.00
38812;BME280;24553;51.640;-0.752;2022-12-18T01:22:35;101445.31;;;-6.49;100.00
38812;BME280;24553;51.640;-0.752;2022-12-18T01:25:00;101441.66;;;-6.44;100.00
38812;BME280;24553;51.640;-0.752;2022-12-18T01:27:26;101439.22;;;-6.47;100.00
38812;BME280;24553;51.640;-0.752;2022-12-18T01:29:51;101437.41;;;-6.45;100.00
38812;BME280;24553;51.640;-0.752;2022-12-18T01:32:17;101439.09;;;-6.44;100.00
38812;BME280;24553;51.640;-0.752;2022-12-18T01:34:42;101425.53;;;-6.49;100.00
38812;BME280;24553;51.640;-0.752;2022-12-18T01:37:08;101427.50;;;-6.55;100.00
38812;BME280;24553;51.640;-0.752;2022-12-18T01:39:33;101423.72;;;-6.47;100.00
38812;BME280;24553;51.640;-0.752;2022-12-18T01:42:00;101420.69;;;-6.34;100.00
38812;BME280;24553;51.640;-0.752;2022-12-18T01:47:46;101424.22;;;-6.15;100.00
38812;BME280;24553;51.640;-0.752;2022-12-18T01:50:15;101425.34;;;-6.00;100.00
38812;BME280;24553;51.640;-0.752;2022-12-18T01:52:50;101427.13;;;-5.60;100.00
38812;BME280;24553;51.640;-0.752;2022-12-18T01:55:19;101429.56;;;-5.57;100.00
38812;BME280;24553;51.640;-0.752;2022-12-18T01:57:46;101427.16;;;-5.61;100.00
38812;BME280;24553;51.640;-0.752;2022-12-18T02:00:18;101427.03;;;-5.58;100.00
38812;BME280;24553;51.640;-0.752;2022-12-18T02:02:46;101427.75;;;-5.55;100.00
38812;BME280;24553;51.640;-0.752;2022-12-18T02:05:14;101432.28;;;-5.60;100.00
38812;BME280;24553;51.640;-0.752;2022-12-18T02:11:32;101443.06;;;-5.50;100.00
38812;BME280;24553;51.640;-0.752;2022-12-18T02:16:44;101434.75;;;-5.36;100.00
38812;BME280;24553;51.640;-0.752;2022-12-18T02:22:06;101451.31;;;-5.21;100.00
38812;BME280;24553;51.640;-0.752;2022-12-18T02:27:36;101452.50;;;-4.89;100.00
38812;BME280;24553;51.640;-0.752;2022-12-18T02:30:04;101457.84;;;-4.73;100.00
38812;BME280;24553;51.640;-0.752;2022-12-18T02:32:35;101461.19;;;-4.71;100.00
38812;BME280;24553;51.640;-0.752;2022-12-18T02:35:04;101464.63;;;-4.90;100.00
38812;BME280;24553;51.640;-0.752;2022-12-18T02:37:32;101475.94;;;-4.92;100.00
38812;BME280;24553;51.640;-0.752;2022-12-18T02:39:59;101477.47;;;-4.88;100.00
38812;BME280;24553;51.640;-0.752;2022-12-18T02:42:25;101477.75;;;-4.94;100.00
38812;BME280;24553;51.640;-0.752;2022-12-18T02:44:55;101480.19;;;-4.91;100.00
38812;BME280;24553;51.640;-0.752;2022-12-18T02:47:23;101476.50;;;-5.06;100.00
38812;BME280;24553;51.640;-0.752;2022-12-18T02:50:08;101471.75;;;-5.15;100.00
38812;BME280;24553;51.640;-0.752;2022-12-18T03:03:13;101441.59;;;-5.16;100.00
38812;BME280;24553;51.640;-0.752;2022-12-18T03:05:45;101435.47;;;-5.14;100.00
38812;BME280;24553;51.640;-0.752;2022-12-18T03:08:41;101435.13;;;-5.06;100.00
38812;BME280;24553;51.640;-0.752;2022-12-18T03:11:10;101432.53;;;-5.06;100.00
38812;BME280;24553;51.640;-0.752;2022-12-18T03:13:46;101427.75;;;-4.95;100.00
38812;BME280;24553;51.640;-0.752;2022-12-18T03:16:21;101433.56;;;-4.90;100.00
38812;BME280;24553;51.640;-0.752;2022-12-18T03:18:59;101424.41;;;-4.78;100.00
38812;BME280;24553;51.640;-0.752;2022-12-18T03:21:33;101428.25;;;-4.68;100.00
38812;BME280;24553;51.640;-0.752;2022-12-18T03:24:01;101412.88;;;-4.71;100.00
38812;BME280;24553;51.640;-0.752;2022-12-18T03:26:31;101419.00;;;-4.54;100.00
38812;BME280;24553;51.640;-0.752;2022-12-18T03:29:04;101430.16;;;-4.16;100.00
38812;BME280;24553;51.640;-0.752;2022-12-18T03:31:35;101425.69;;;-4.12;100.00
38812;BME280;24553;51.640;-0.752;2022-12-18T03:34:06;101422.59;;;-4.02;100.00
38812;BME280;24553;51.640;-0.752;2022-12-18T03:36:34;101415.88;;;-3.88;100.00
38812;BME280;24553;51.640;-0.752;2022-12-18T03:39:00;101418.25;;;-3.84;100.00
38812;BME280;24553;51.640;-0.752;2022-12-18T03:41:32;101417.56;;;-3.87;100.00
38812;BME280;24553;51.640;-0.752;2022-12-18T03:47:02;101401.03;;;-4.02;100.00
38812;BME280;24553;51.640;-0.752;2022-12-18T03:52:32;101385.69;;;-4.07;100.00
38812;BME280;24553;51.640;-0.752;2022-12-18T03:55:01;101392.84;;;-4.12;100.00
38812;BME280;24553;51.640;-0.752;2022-12-18T03:57:30;101392.19;;;-4.15;100.00
38812;BME280;24553;51.640;-0.752;2022-12-18T04:00:01;101392.72;;;-3.74;100.00
38812;BME280;24553;51.640;-0.752;2022-12-18T04:02:28;101395.09;;;-3.87;100.00
38812;BME280;24553;51.640;-0.752;2022-12-18T04:04:58;101394.75;;;-3.98;100.00
38812;BME280;24553;51.640;-0.752;2022-12-18T04:07:25;101394.53;;;-4.11;100.00
38812;BME280;24553;51.640;-0.752;2022-12-18T04:09:54;101391.00;;;-4.27;100.00
38812;BME280;24553;51.640;-0.752;2022-12-18T04:12:22;101378.72;;;-4.41;100.00
38812;BME280;24553;51.640;-0.752;2022-12-18T04:14:48;101372.41;;;-4.35;100.00
38812;BME280;24553;51.640;-0.752;2022-12-18T04:17:14;101384.63;;;-4.20;100.00
38812;BME280;24553;51.640;-0.752;2022-12-18T04:19:39;101373.56;;;-4.06;100.00
38812;BME280;24553;51.640;-0.752;2022-12-18T04:22:04;101362.69;;;-3.96;100.00
38812;BME280;24553;51.640;-0.752;2022-12-18T04:24:30;101363.22;;;-3.89;100.00
38812;BME280;24553;51.640;-0.752;2022-12-18T04:26:55;101366.81;;;-3.91;100.00
38812;BME280;24553;51.640;-0.752;2022-12-18T04:29:20;101368.81;;;-3.79;100.00
38812;BME280;24553;51.640;-0.752;2022-12-18T04:31:46;101372.84;;;-3.74;100.00
38812;BME280;24553;51.640;-0.752;2022-12-18T04:34:11;101377.09;;;-3.73;100.00
38812;BME280;24553;51.640;-0.752;2022-12-18T04:36:36;101362.75;;;-3.62;100.00
38812;BME280;24553;51.640;-0.752;2022-12-18T04:39:02;101363.06;;;-3.51;100.00
38812;BME280;24553;51.640;-0.752;2022-12-18T04:41:27;101356.22;;;-3.36;100.00
38812;BME280;24553;51.640;-0.752;2022-12-18T04:43:52;101349.56;;;-3.24;100.00
38812;BME280;24553;51.640;-0.752;2022-12-18T04:46:18;101340.28;;;-3.13;100.00
38812;BME280;24553;51.640;-0.752;2022-12-18T04:48:45;101322.97;;;-3.12;100.00
38812;BME280;24553;51.640;-0.752;2022-12-18T04:51:10;101315.50;;;-3.02;100.00
38812;BME280;24553;51.640;-0.752;2022-12-18T04:53:36;101315.09;;;-2.95;100.00
38812;BME280;24553;51.640;-0.752;2022-12-18T04:56:06;101309.66;;;-2.74;100.00
38812;BME280;24553;51.640;-0.752;2022-12-18T04:58:32;101313.06;;;-2.74;100.00
38812;BME280;24553;51.640;-0.752;2022-12-18T05:00:57;101306.16;;;-2.73;100.00
38812;BME280;24553;51.640;-0.752;2022-12-18T05:03:22;101295.84;;;-2.75;100.00
38812;BME280;24553;51.640;-0.752;2022-12-18T05:05:51;101291.31;;;-2.71;100.00
38812;BME280;24553;51.640;-0.752;2022-12-18T05:08:17;101287.97;;;-2.73;100.00
38812;BME280;24553;51.640;-0.752;2022-12-18T05:10:42;101269.44;;;-2.67;100.00
38812;BME280;24553;51.640;-0.752;2022-12-18T05:13:08;101261.41;;;-2.63;100.00
38812;BME280;24553;51.640;-0.752;2022-12-18T05:15:33;101259.81;;;-2.65;100.00
38812;BME280;24553;51.640;-0.752;2022-12-18T05:17:59;101258.88;;;-2.64;100.00
38812;BME280;24553;51.640;-0.752;2022-12-18T05:20:25;101268.19;;;-2.60;100.00
38812;BME280;24553;51.640;-0.752;2022-12-18T05:22:51;101270.84;;;-2.61;100.00
38812;BME280;24553;51.640;-0.752;2022-12-18T05:25:17;101273.13;;;-2.55;100.00
38812;BME280;24553;51.640;-0.752;2022-12-18T05:27:43;101264.84;;;-2.62;100.00
38812;BME280;24553;51.640;-0.752;2022-12-18T05:30:09;101254.72;;;-2.67;100.00
38812;BME280;24553;51.640;-0.752;2022-12-18T05:32:34;101241.81;;;-2.68;100.00
38812;BME280;24553;51.640;-0.752;2022-12-18T05:35:00;101244.31;;;-2.67;100.00
38812;BME280;24553;51.640;-0.752;2022-12-18T05:37:25;101253.38;;;-2.58;100.00
38812;BME280;24553;51.640;-0.752;2022-12-18T05:39:50;101256.69;;;-2.56;100.00
38812;BME280;24553;51.640;-0.752;2022-12-18T05:42:16;101252.25;;;-2.54;100.00
38812;BME280;24553;51.640;-0.752;2022-12-18T05:44:41;101252.50;;;-2.58;100.00
38812;BME280;24553;51.640;-0.752;2022-12-18T05:47:08;101253.50;;;-2.61;100.00
38812;BME280;24553;51.640;-0.752;2022-12-18T05:49:33;101243.88;;;-2.59;100.00
38812;BME280;24553;51.640;-0.752;2022-12-18T05:51:59;101246.72;;;-2.48;100.00
38812;BME280;24553;51.640;-0.752;2022-12-18T05:54:27;101240.97;;;-2.38;100.00
38812;BME280;24553;51.640;-0.752;2022-12-18T05:56:52;101238.38;;;-2.38;100.00
38812;BME280;24553;51.640;-0.752;2022-12-18T05:59:17;101226.59;;;-2.30;100.00
38812;BME280;24553;51.640;-0.752;2022-12-18T06:01:43;101230.72;;;-2.26;100.00
38812;BME280;24553;51.640;-0.752;2022-12-18T06:04:08;101235.66;;;-2.21;100.00
38812;BME280;24553;51.640;-0.752;2022-12-18T06:06:33;101227.75;;;-2.20;100.00
38812;BME280;24553;51.640;-0.752;2022-12-18T06:08:59;101220.06;;;-2.21;100.00
38812;BME280;24553;51.640;-0.752;2022-12-18T06:11:26;101206.50;;;-2.12;100.00
38812;BME280;24553;51.640;-0.752;2022-12-18T06:13:53;101195.09;;;-2.09;100.00
38812;BME280;24553;51.640;-0.752;2022-12-18T06:16:19;101198.63;;;-2.10;100.00
38812;BME280;24553;51.640;-0.752;2022-12-18T06:18:44;101197.69;;;-2.09;100.00
38812;BME280;24553;51.640;-0.752;2022-12-18T06:21:10;101202.72;;;-2.06;100.00
38812;BME280;24553;51.640;-0.752;2022-12-18T06:23:35;101190.38;;;-2.03;100.00
38812;BME280;24553;51.640;-0.752;2022-12-18T06:26:06;101200.22;;;-1.93;100.00
38812;BME280;24553;51.640;-0.752;2022-12-18T06:28:31;101192.25;;;-1.90;100.00
38812;BME280;24553;51.640;-0.752;2022-12-18T06:30:56;101187.88;;;-1.90;100.00
38812;BME280;24553;51.640;-0.752;2022-12-18T06:33:26;101184.59;;;-1.79;100.00
38812;BME280;24553;51.640;-0.752;2022-12-18T06:35:51;101185.91;;;-1.72;100.00
38812;BME280;24553;51.640;-0.752;2022-12-18T06:38:16;101183.84;;;-1.67;100.00
38812;BME280;24553;51.640;-0.752;2022-12-18T06:40:42;101182.16;;;-1.68;100.00
38812;BME280;24553;51.640;-0.752;2022-12-18T06:43:07;101179.22;;;-1.62;100.00
38812;BME280;24553;51.640;-0.752;2022-12-18T06:45:33;101174.66;;;-1.58;100.00
38812;BME280;24553;51.640;-0.752;2022-12-18T06:47:58;101178.63;;;-1.52;100.00
38812;BME280;24553;51.640;-0.752;2022-12-18T06:50:24;101178.72;;;-1.54;100.00
38812;BME280;24553;51.640;-0.752;2022-12-18T06:52:49;101177.16;;;-1.57;100.00
38812;BME280;24553;51.640;-0.752;2022-12-18T06:55:14;101171.00;;;-1.56;100.00
38812;BME280;24553;51.640;-0.752;2022-12-18T06:57:40;101184.69;;;-1.52;100.00
38812;BME280;24553;51.640;-0.752;2022-12-18T07:00:06;101178.44;;;-1.49;100.00
38812;BME280;24553;51.640;-0.752;2022-12-18T07:02:32;101173.06;;;-1.46;100.00
38812;BME280;24553;51.640;-0.752;2022-12-18T07:04:57;101167.75;;;-1.45;100.00
38812;BME280;24553;51.640;-0.752;2022-12-18T07:07:23;101157.25;;;-1.43;100.00
38812;BME280;24553;51.640;-0.752;2022-12-18T07:09:51;101162.91;;;-1.37;100.00
38812;BME280;24553;51.640;-0.752;2022-12-18T07:12:17;101166.53;;;-1.39;100.00
38812;BME280;24553;51.640;-0.752;2022-12-18T07:14:42;101160.19;;;-1.35;100.00
38812;BME280;24553;51.640;-0.752;2022-12-18T07:17:08;101148.88;;;-1.34;100.00
38812;BME280;24553;51.640;-0.752;2022-12-18T07:19:34;101144.59;;;-1.35;100.00
38812;BME280;24553;51.640;-0.752;2022-12-18T07:21:59;101139.28;;;-1.34;100.00
38812;BME280;24553;51.640;-0.752;2022-12-18T07:24:25;101142.31;;;-1.27;100.00
38812;BME280;24553;51.640;-0.752;2022-12-18T07:26:50;101130.88;;;-1.24;100.00
38812;BME280;24553;51.640;-0.752;2022-12-18T07:29:16;101125.59;;;-1.23;100.00
38812;BME280;24553;51.640;-0.752;2022-12-18T07:31:41;101126.22;;;-1.19;100.00
38812;BME280;24553;51.640;-0.752;2022-12-18T07:34:11;101116.66;;;-1.19;100.00
38812;BME280;24553;51.640;-0.752;2022-12-18T07:36:37;101122.03;;;-1.22;100.00
38812;BME280;24553;51.640;-0.752;2022-12-18T07:39:02;101115.81;;;-1.19;100.00
38812;BME280;24553;51.640;-0.752;2022-12-18T07:41:27;101113.31;;;-1.21;100.00
38812;BME280;24553;51.640;-0.752;2022-12-18T07:43:53;101115.09;;;-1.21;100.00
38812;BME280;24553;51.640;-0.752;2022-12-18T07:46:18;101107.91;;;-1.18;100.00
38812;BME280;24553;51.640;-0.752;2022-12-18T07:48:44;101114.56;;;-1.14;100.00
38812;BME280;24553;51.640;-0.752;2022-12-18T07:51:13;101096.72;;;-1.05;100.00
38812;BME280;24553;51.640;-0.752;2022-12-18T07:53:38;101093.25;;;-1.06;100.00
38812;BME280;24553;51.640;-0.752;2022-12-18T07:56:07;101089.44;;;-1.00;100.00
38812;BME280;24553;51.640;-0.752;2022-12-18T07:58:33;101088.16;;;-1.07;100.00
38812;BME280;24553;51.640;-0.752;2022-12-18T08:01:07;101096.72;;;-1.05;100.00
38812;BME280;24553;51.640;-0.752;2022-12-18T08:03:33;101115.84;;;-1.06;100.00
38812;BME280;24553;51.640;-0.752;2022-12-18T08:06:00;101123.34;;;-1.02;100.00
38812;BME280;24553;51.640;-0.752;2022-12-18T08:08:26;101111.09;;;-1.00;100.00
38812;BME280;24553;51.640;-0.752;2022-12-18T08:10:51;101104.84;;;-0.97;100.00
38812;BME280;24553;51.640;-0.752;2022-12-18T08:13:17;101108.34;;;-0.98;100.00
38812;BME280;24553;51.640;-0.752;2022-12-18T08:15:42;101101.41;;;-0.98;100.00
38812;BME280;24553;51.640;-0.752;2022-12-18T08:18:07;101115.03;;;-0.94;100.00
38812;BME280;24553;51.640;-0.752;2022-12-18T08:20:32;101117.66;;;-0.94;100.00
38812;BME280;24553;51.640;-0.752;2022-12-18T08:22:58;101109.63;;;-0.91;100.00
38812;BME280;24553;51.640;-0.752;2022-12-18T08:25:23;101113.06;;;-0.91;100.00
38812;BME280;24553;51.640;-0.752;2022-12-18T08:27:49;101107.69;;;-0.88;100.00
38812;BME280;24553;51.640;-0.752;2022-12-18T08:30:14;101114.44;;;-0.85;100.00
38812;BME280;24553;51.640;-0.752;2022-12-18T08:32:39;101117.13;;;-0.86;100.00
38812;BME280;24553;51.640;-0.752;2022-12-18T08:35:05;101117.75;;;-0.83;100.00
38812;BME280;24553;51.640;-0.752;2022-12-18T08:37:31;101114.25;;;-0.82;100.00
38812;BME280;24553;51.640;-0.752;2022-12-18T08:39:56;101108.81;;;-0.79;100.00
38812;BME280;24553;51.640;-0.752;2022-12-18T08:42:21;101114.75;;;-0.77;100.00
38812;BME280;24553;51.640;-0.752;2022-12-18T08:45:06;101120.81;;;-0.76;100.00
38812;BME280;24553;51.640;-0.752;2022-12-18T08:47:31;101124.03;;;-0.73;100.00
38812;BME280;24553;51.640;-0.752;2022-12-18T08:49:57;101122.38;;;-0.74;100.00
38812;BME280;24553;51.640;-0.752;2022-12-18T08:52:22;101120.38;;;-0.70;100.00
38812;BME280;24553;51.640;-0.752;2022-12-18T08:54:47;101118.44;;;-0.67;100.00
38812;BME280;24553;51.640;-0.752;2022-12-18T08:57:13;101125.72;;;-0.59;100.00
38812;BME280;24553;51.640;-0.752;2022-12-18T08:59:38;101123.81;;;-0.57;100.00
38812;BME280;24553;51.640;-0.752;2022-12-18T09:02:03;101122.16;;;-0.58;100.00
38812;BME280;24553;51.640;-0.752;2022-12-18T09:04:29;101124.69;;;-0.56;100.00
38812;BME280;24553;51.640;-0.752;2022-12-18T09:06:54;101123.75;;;-0.55;100.00
38812;BME280;24553;51.640;-0.752;2022-12-18T09:09:19;101117.56;;;-0.54;100.00
38812;BME280;24553;51.640;-0.752;2022-12-18T09:11:44;101119.25;;;-0.53;100.00
38812;BME280;24553;51.640;-0.752;2022-12-18T09:14:10;101114.97;;;-0.54;100.00
38812;BME280;24553;51.640;-0.752;2022-12-18T09:16:36;101124.03;;;-0.47;100.00
38812;BME280;24553;51.640;-0.752;2022-12-18T09:19:03;101123.00;;;-0.45;100.00
38812;BME280;24553;51.640;-0.752;2022-12-18T09:21:34;101130.09;;;-0.47;100.00
38812;BME280;24553;51.640;-0.752;2022-12-18T09:24:00;101137.72;;;-0.43;100.00
38812;BME280;24553;51.640;-0.752;2022-12-18T09:26:26;101140.31;;;-0.43;100.00
38812;BME280;24553;51.640;-0.752;2022-12-18T09:28:52;101137.91;;;-0.47;100.00
38812;BME280;24553;51.640;-0.752;2022-12-18T09:31:19;101122.19;;;-0.45;100.00
38812;BME280;24553;51.640;-0.752;2022-12-18T09:33:45;101125.81;;;-0.48;100.00
38812;BME280;24553;51.640;-0.752;2022-12-18T09:36:13;101122.41;;;-0.48;100.00
38812;BME280;24553;51.640;-0.752;2022-12-18T09:38:38;101127.19;;;-0.42;100.00
38812;BME280;24553;51.640;-0.752;2022-12-18T09:43:52;101124.16;;;-0.36;100.00
38812;BME280;24553;51.640;-0.752;2022-12-18T09:46:23;101121.34;;;-0.33;100.00
38812;BME280;24553;51.640;-0.752;2022-12-18T09:48:53;101124.88;;;-0.34;100.00
38812;BME280;24553;51.640;-0.752;2022-12-18T09:51:25;101131.56;;;-0.30;100.00
38812;BME280;24553;51.640;-0.752;2022-12-18T09:53:58;101127.81;;;-0.26;100.00
38812;BME280;24553;51.640;-0.752;2022-12-18T09:56:25;101112.06;;;-0.24;100.00
38812;BME280;24553;51.640;-0.752;2022-12-18T09:58:58;101102.66;;;-0.14;100.00
38812;BME280;24553;51.640;-0.752;2022-12-18T10:01:24;101099.97;;;-0.12;100.00
38812;BME280;24553;51.640;-0.752;2022-12-18T10:03:50;101109.22;;;-0.08;100.00
38812;BME280;24553;51.640;-0.752;2022-12-18T10:12:07;101110.16;;;0.04;100.00
38812;BME280;24553;51.640;-0.752;2022-12-18T10:14:46;101094.28;;;0.07;100.00
38812;BME280;24553;51.640;-0.752;2022-12-18T10:17:26;101084.97;;;0.15;100.00
38812;BME280;24553;51.640;-0.752;2022-12-18T10:19:59;101067.56;;;0.16;100.00
38812;BME280;24553;51.640;-0.752;2022-12-18T10:25:19;101042.91;;;0.20;100.00
38812;BME280;24553;51.640;-0.752;2022-12-18T10:27:47;101039.88;;;0.26;100.00
38812;BME280;24553;51.640;-0.752;2022-12-18T10:30:18;101039.03;;;0.26;100.00
38812;BME280;24553;51.640;-0.752;2022-12-18T10:32:44;101033.13;;;0.24;100.00
38812;BME280;24553;51.640;-0.752;2022-12-18T10:35:24;101032.06;;;0.26;100.00
38812;BME280;24553;51.640;-0.752;2022-12-18T10:38:19;101036.91;;;0.31;100.00
38812;BME280;24553;51.640;-0.752;2022-12-18T10:43:37;101031.72;;;0.31;100.00
38812;BME280;24553;51.640;-0.752;2022-12-18T10:51:23;101007.31;;;0.32;100.00
38812;BME280;24553;51.640;-0.752;2022-12-18T10:53:59;101003.00;;;0.31;100.00
38812;BME280;24553;51.640;-0.752;2022-12-18T10:56:27;100995.91;;;0.33;100.00
38812;BME280;24553;51.640;-0.752;2022-12-18T10:59:04;100982.44;;;0.39;100.00
38812;BME280;24553;51.640;-0.752;2022-12-18T11:01:57;100977.91;;;0.41;100.00
38812;BME280;24553;51.640;-0.752;2022-12-18T11:04:25;100974.38;;;0.42;100.00
38812;BME280;24553;51.640;-0.752;2022-12-18T11:07:07;100964.66;;;0.44;100.00
38812;BME280;24553;51.640;-0.752;2022-12-18T11:09:34;100959.44;;;0.44;100.00
38812;BME280;24553;51.640;-0.752;2022-12-18T11:12:17;100965.25;;;0.48;100.00
38812;BME280;24553;51.640;-0.752;2022-12-18T11:14:47;100967.53;;;0.52;100.00
38812;BME280;24553;51.640;-0.752;2022-12-18T11:17:30;100956.88;;;0.55;100.00
38812;BME280;24553;51.640;-0.752;2022-12-18T11:19:58;100946.75;;;0.51;100.00
38812;BME280;24553;51.640;-0.752;2022-12-18T11:22:31;100945.13;;;0.50;100.00
38812;BME280;24553;51.640;-0.752;2022-12-18T11:25:18;100943.31;;;0.50;100.00
38812;BME280;24553;51.640;-0.752;2022-12-18T11:34:12;100924.97;;;0.52;100.00
38812;BME280;24553;51.640;-0.752;2022-12-18T11:36:44;100926.03;;;0.49;100.00
38812;BME280;24553;51.640;-0.752;2022-12-18T11:41:57;100921.38;;;0.53;100.00
38812;BME280;24553;51.640;-0.752;2022-12-18T11:50:15;100905.63;;;0.54;100.00
38812;BME280;24553;51.640;-0.752;2022-12-18T11:52:42;100888.28;;;0.53;100.00
38812;BME280;24553;51.640;-0.752;2022-12-18T12:10:22;100836.09;;;0.64;100.00
38812;BME280;24553;51.640;-0.752;2022-12-18T12:13:08;100833.97;;;0.70;100.00
38812;BME280;24553;51.640;-0.752;2022-12-18T12:26:58;100808.47;;;0.73;100.00
38812;BME280;24553;51.640;-0.752;2022-12-18T12:40:27;100795.06;;;0.78;100.00
38812;BME280;24553;51.640;-0.752;2022-12-18T12:42:56;100789.63;;;0.81;100.00
38812;BME280;24553;51.640;-0.752;2022-12-18T12:45:46;100784.16;;;0.84;100.00
38812;BME280;24553;51.640;-0.752;2022-12-18T12:48:27;100778.34;;;0.80;100.00
38812;BME280;24553;51.640;-0.752;2022-12-18T12:50:57;100775.03;;;0.78;100.00
38812;BME280;24553;51.640;-0.752;2022-12-18T12:53:30;100768.72;;;0.81;100.00
38812;BME280;24553;51.640;-0.752;2022-12-18T12:55:58;100754.38;;;0.75;100.00
38812;BME280;24553;51.640;-0.752;2022-12-18T12:58:49;100748.91;;;0.78;100.00
38812;BME280;24553;51.640;-0.752;2022-12-18T13:09:02;100728.59;;;0.82;100.00
38812;BME280;24553;51.640;-0.752;2022-12-18T13:11:40;100726.09;;;0.92;100.00
38812;BME280;24553;51.640;-0.752;2022-12-18T13:19:55;100705.22;;;0.92;100.00
38812;BME280;24553;51.640;-0.752;2022-12-18T13:22:35;100709.25;;;0.96;100.00
38812;BME280;24553;51.640;-0.752;2022-12-18T13:25:01;100701.41;;;0.96;100.00
38812;BME280;24553;51.640;-0.752;2022-12-18T13:36:26;100687.94;;;1.12;100.00
38812;BME280;24553;51.640;-0.752;2022-12-18T13:41:38;100686.97;;;1.13;100.00
38812;BME280;24553;51.640;-0.752;2022-12-18T13:44:24;100683.03;;;1.18;100.00
38812;BME280;24553;51.640;-0.752;2022-12-18T13:46:51;100675.78;;;1.22;100.00
38812;BME280;24553;51.640;-0.752;2022-12-18T13:51:48;100666.88;;;1.24;100.00
38812;BME280;24553;51.640;-0.752;2022-12-18T13:54:35;100668.25;;;1.28;100.00
38812;BME280;24553;51.640;-0.752;2022-12-18T13:57:03;100660.44;;;1.28;100.00
38812;BME280;24553;51.640;-0.752;2022-12-18T13:59:35;100660.56;;;1.27;100.00
38812;BME280;24553;51.640;-0.752;2022-12-18T14:02:13;100662.78;;;1.31;100.00
38812;BME280;24553;51.640;-0.752;2022-12-18T14:04:38;100663.88;;;1.29;100.00
38812;BME280;24553;51.640;-0.752;2022-12-18T14:07:12;100661.13;;;1.30;100.00
38812;BME280;24553;51.640;-0.752;2022-12-18T14:09:42;100659.50;;;1.29;100.00
38812;BME280;24553;51.640;-0.752;2022-12-18T14:12:17;100654.13;;;1.31;100.00
38812;BME280;24553;51.640;-0.752;2022-12-18T14:15:03;100653.88;;;1.34;100.00
38812;BME280;24553;51.640;-0.752;2022-12-18T14:17:31;100653.19;;;1.32;100.00
38812;BME280;24553;51.640;-0.752;2022-12-18T14:19:57;100655.53;;;1.35;100.00
38812;BME280;24553;51.640;-0.752;2022-12-18T14:22:26;100656.81;;;1.41;100.00
38812;BME280;24553;51.640;-0.752;2022-12-18T14:27:43;100648.34;;;1.48;100.00
38812;BME280;24553;51.640;-0.752;2022-12-18T14:33:05;100636.78;;;1.51;100.00
38812;BME280;24553;51.640;-0.752;2022-12-18T14:35:32;100635.81;;;1.52;100.00
38812;BME280;24553;51.640;-0.752;2022-12-18T14:40:42;100647.06;;;1.64;100.00
38812;BME280;24553;51.640;-0.752;2022-12-18T14:43:11;100645.16;;;1.66;100.00
38812;BME280;24553;51.640;-0.752;2022-12-18T14:45:42;100638.69;;;1.70;100.00
38812;BME280;24553;51.640;-0.752;2022-12-18T14:48:19;100645.69;;;1.69;100.00
38812;BME280;24553;51.640;-0.752;2022-12-18T14:50:55;100635.13;;;1.71;100.00
38812;BME280;24553;51.640;-0.752;2022-12-18T14:53:42;100632.81;;;1.78;100.00
38812;BME280;24553;51.640;-0.752;2022-12-18T14:56:29;100629.47;;;1.75;100.00
38812;BME280;24553;51.640;-0.752;2022-12-18T14:59:01;100620.00;;;1.74;100.00
38812;BME280;24553;51.640;-0.752;2022-12-18T15:01:36;100620.44;;;1.80;100.00